Chugwater, WY (82210)

8:30 PM MDT on July 23, 2014 (GMT -0600)
Torrington Municipal (KTOR) Elev 4206 ft | 42.06 °N, 104.15 °W | Change Station

Current weather conditions updated 37 minutes ago

Clear
Clear
85 °F
Feels Like 86 °F
N
7
Wind Variable Wind from ESE

Tomorrow is forecast to be nearly the same temperature as today.

Today
High -- | Low -- °F
--% Chance of Precip.
Yesterday
High -- | Low -- °F
Precip. -- in
5:44 AM 8:25 PM
Waning Crescent, 7% visible
Pressure 29.93 in
Visibility 10.0 miles
Clouds Clear
Heat Index 86 °F
Dew Point 64 °F
Humidity 49%
Rainfall 0.00 in
Snow Depth Not available.
UV 0 out of 12
Pollen 7.00 out of 12
Air Quality Not available.
Flu Activity Not available.
METAR KTOR 240153Z AUTO 12006KT 10SM CLR 29/18 A3009 RMK AO2 SLP134 T02940178

More Conditions Fewer Conditions

Pressure 29.93 in
Visibility 10.0 miles
Clouds Clear
Heat Index 86 °F
Dew Point 64 °F
Humidity 49%
Rainfall 0.00 in
Snow Depth Not available.
UV 0 out of 12
Pollen 7.00 out of 12
Air Quality Not available.
Flu Activity Not available.
METAR KTOR 240153Z AUTO 12006KT 10SM CLR 29/18 A3009 RMK AO2 SLP134 T02940178

More Conditions Fewer Conditions

Nowcast | as of 8:07 PM MDT on July 23, 2014

Through late evening...isolated showers and thunderstorms will produce occasional light to moderate rainfall and brief gusty winds as they move east across the area.

×

10-Day Weather Forecast

Almanac

Astronomy

Jul. 23, 2014 Rise Set
Actual Time 5:44 AM MDT 8:25 PM MDT
Civil Twilight 5:12 AM MDT 8:58 PM MDT
Nautical Twilight 4:31 AM MDT 9:38 PM MDT
Astronomical Twilight 3:45 AM MDT 10:24 PM MDT
Moon 3:05 AM MDT (7/23) 5:56 PM MDT (7/23)
Length of Visible Light 15h 45m
Length of Day
14h 41m
Tomorrow will be 1m 50s shorter.
Waning Crescent, 7% of the Moon is Illuminated
Today
Waning Crescent
Jul 26
New
Aug 3
First Quarter
Aug 10
Full
Aug 17
Last Quarter

Today's Extremes

State Highs State Lows

Community

WunderPhotos

Upload Photos

1,736,863 photos uploaded!

Nearby

Snow Depth

Station Depth Elevation
Crow Creek 0 in 8330 ft
Sandstone R.S. 10 in 8150 ft
Townsend Creek 0 in 8700 ft
Big Sandy Opening 0 in 9080 ft
Cold Springs 0 in 9630 ft

Earthquake Activity

City Distance Mag. Time & Date
No recent earthquake activity has been reported nearby.
Minimum magnitude displayed is 2.5.

Coastal Water Temperatures

Place Temperature
No Stations Reporting

Nearby Weather Stations

There are no personal weather stations in this area.